Estación Meteorológica Peña el Pijo (Robertgarden) [ 07/19/18 09:24:51 CEST ]

Fecha Hora Presion(HPa) Temp (°C) Humedad % Rocio (°C) Viento ( m/s) Direccion Lluvia 1Hora(mm) Lluvia 24H(mm) LLuvia Total(mm)
2018-Jul-16 01:01:42 1011.800 17.4 47 5.9         269.36
2018-Jul-16 02:01:54 1012.000 16.2 51 6.0 1.8 NNW     269.36
2018-Jul-16 03:01:35 1011.800 16.2 55 7.1         269.36
2018-Jul-16 04:01:35 1011.300 15.3 60 7.6         269.36
2018-Jul-16 05:01:39 1011.300 14.2 64 7.5         269.36
2018-Jul-16 06:01:35 1011.400 14.5 67 8.4 0.8 N     269.36
2018-Jul-16 07:01:56 1011.700 14.9 67 8.8         269.36
2018-Jul-16 08:01:53 1011.900 15.8 67 9.7 0.6 NNW     269.36
2018-Jul-16 09:01:51 1012.400 18.1 59 9.9 2.4 NW     269.36
2018-Jul-16 10:01:58 1012.300 20.2 51 9.8         269.36
2018-Jul-16 11:02:00 1012.300 22.8 42 9.2         269.36
2018-Jul-16 12:01:45 1012.500 24.9 35 8.3         269.36
2018-Jul-16 13:01:48 1012.500 27.6 33 9.8         269.36
2018-Jul-16 14:01:41 1012.200 29.3 28 8.8         269.36
2018-Jul-16 15:01:35 1012.000 31.4 23 7.6         269.36
2018-Jul-16 16:01:36 1011.500 33.0 21 8.2         269.36
2018-Jul-16 17:01:49 1011.500 33.6 20 7.6         269.36
2018-Jul-16 18:01:25 1011.100 32.3 21 7.1         269.36
2018-Jul-16 19:01:23 1011.100 31.3 24 8.2         269.36
2018-Jul-16 20:01:13 1011.400 29.1 27 8.0         269.36
2018-Jul-16 21:01:42 1011.800 24.4 31 6.2         269.36
2018-Jul-16 22:01:47 1012.400 20.7 40 6.6         269.36
2018-Jul-16 23:01:45 1012.900 17.8 48 6.6         269.36

Temperatura Máxima:33°    Temperatura Mínima:14°
Presión Máxima:1012.900 Hpa    Presión Mínima:1011.100 Hpa


Volver